Time;durP1;ratioP1;P1;durP2;ratioP2;P2;SDS_P1;SDS_P2;PMS_P1;PMS_P2;Temp;Humidity;BMP_temperature;BMP_pressure;BME280_temperature;BME280_humidity;BME280_pressure;Samples;Min_cycle;Max_cycle;Signal;HPM_P1;HPM_P2
2022/09/21 00:01:14;;;;;;;3.58;1.77;;;;;;;9.33;91.08;101655.22;4936484;28;20511;-65
2022/09/21 00:03:42;;;;;;;2.22;1.50;;;;;;;9.33;90.74;101650.81;4954446;28;20051;-64
2022/09/21 00:06:14;;;;;;;3.28;1.92;;;;;;;9.36;90.49;101653.31;4939452;28;20055;-66
2022/09/21 00:08:42;;;;;;;3.00;1.63;;;;;;;9.32;91.38;101657.00;4951316;28;20555;-63
2022/09/21 00:11:13;;;;;;;3.78;1.58;;;;;;;9.29;92.06;101656.25;4955791;28;20516;-64
2022/09/21 00:13:43;;;;;;;2.78;1.77;;;;;;;9.30;91.29;101658.81;4954214;28;20070;-64
2022/09/21 00:16:10;;;;;;;2.28;1.58;;;;;;;9.33;90.70;101668.38;4950833;28;20091;-64
2022/09/21 00:18:37;;;;;;;3.33;1.42;;;;;;;9.30;91.33;101669.31;4947607;28;20055;-64
2022/09/21 00:21:10;;;;;;;5.25;1.60;;;;;;;9.31;91.79;101664.91;4953296;28;20074;-64
2022/09/21 00:23:37;;;;;;;3.97;1.63;;;;;;;9.32;92.06;101667.50;4954192;28;20055;-63
2022/09/21 00:26:05;;;;;;;2.58;1.40;;;;;;;9.30;91.30;101661.44;4942821;28;20062;-64
2022/09/21 00:28:32;;;;;;;2.10;1.35;;;;;;;9.32;91.69;101664.00;4937513;29;20085;-63
2022/09/21 00:31:01;;;;;;;3.20;1.70;;;;;;;9.32;92.81;101661.38;4955183;28;20055;-64
2022/09/21 00:33:28;;;;;;;3.38;1.70;;;;;;;9.34;93.08;101664.81;4945237;28;20067;-64
2022/09/21 00:36:02;;;;;;;3.03;1.63;;;;;;;9.33;92.69;101661.34;4949605;28;20158;-65
2022/09/21 00:38:29;;;;;;;2.70;1.50;;;;;;;9.36;93.33;101662.97;4946992;28;20416;-64
2022/09/21 00:40:57;;;;;;;3.53;1.80;;;;;;;9.29;93.24;101670.25;4950498;28;20062;-65
2022/09/21 00:43:24;;;;;;;2.67;1.52;;;;;;;9.29;93.70;101667.63;4944030;28;20059;-64
2022/09/21 00:45:59;;;;;;;4.90;2.13;;;;;;;9.27;93.46;101668.56;4951496;28;20554;-65
2022/09/21 00:48:27;;;;;;;4.50;1.43;;;;;;;9.27;92.66;101668.56;4918001;28;20069;-64
2022/09/21 00:50:57;;;;;;;2.90;1.52;;;;;;;9.26;93.41;101675.59;4939974;28;20936;-64
2022/09/21 00:53:27;;;;;;;5.75;1.65;;;;;;;9.24;93.35;101666.94;4945924;28;20055;-64
2022/09/21 00:55:55;;;;;;;4.20;1.83;;;;;;;9.26;93.01;101672.13;4937342;28;20051;-66
2022/09/21 00:58:29;;;;;;;4.78;1.90;;;;;;;9.26;92.97;101672.97;4970242;28;20062;-64
2022/09/21 01:00:58;;;;;;;2.53;1.40;;;;;;;9.24;93.16;101672.19;4953896;28;20535;-64
2022/09/21 01:03:28;;;;;;;3.22;1.40;;;;;;;9.25;92.77;101670.41;4946393;28;20055;-64
2022/09/21 01:05:55;;;;;;;2.67;1.63;;;;;;;9.21;92.00;101667.03;4932394;28;20066;-65
2022/09/21 01:08:24;;;;;;;5.50;2.17;;;;;;;9.15;92.66;101674.28;4951293;28;20065;-64
2022/09/21 01:11:24;;;;;;;1.90;1.35;;;;;;;9.15;92.29;101679.56;4951949;28;20051;-64
2022/09/21 01:14:20;;;;;;;3.85;1.63;;;;;;;9.15;94.25;101669.03;4921015;28;20071;-64
2022/09/21 01:17:01;;;;;;;3.33;1.80;;;;;;;9.08;93.39;101679.75;4927027;28;20057;-64
2022/09/21 01:19:46;;;;;;;2.72;1.70;;;;;;;9.07;93.36;101680.66;4952489;28;20059;-63
2022/09/21 01:22:31;;;;;;;2.30;1.45;;;;;;;9.04;93.87;101678.13;4937918;28;20054;-64
2022/09/21 01:25:13;;;;;;;4.43;2.03;;;;;;;9.05;95.89;101677.25;4941380;28;20129;-64
2022/09/21 01:28:16;;;;;;;2.92;1.95;;;;;;;8.97;95.50;101681.91;4946448;28;20058;-64
2022/09/21 01:30:44;;;;;;;4.70;1.60;;;;;;;8.96;96.23;101681.94;4934230;28;20070;-63
2022/09/21 01:33:25;;;;;;;3.05;1.88;;;;;;;8.94;96.91;101682.00;4957933;28;20157;-64
2022/09/21 01:36:00;;;;;;;6.65;1.63;;;;;;;8.96;95.46;101685.47;4948718;28;20047;-64
2022/09/21 01:38:31;;;;;;;3.30;1.77;;;;;;;8.94;95.80;101684.63;4935984;28;20058;-64
2022/09/21 01:41:01;;;;;;;2.25;1.38;;;;;;;8.95;95.99;101693.38;4949473;28;20054;-64
2022/09/21 01:43:35;;;;;;;3.97;1.83;;;;;;;8.91;95.38;101687.38;4955381;28;20070;-64
2022/09/21 01:46:04;;;;;;;3.10;1.40;;;;;;;8.94;94.69;101689.03;4965707;28;20053;-64
2022/09/21 01:48:34;;;;;;;3.08;1.73;;;;;;;8.97;93.97;101707.31;4965232;28;20065;-64
2022/09/21 01:51:05;;;;;;;6.07;1.80;;;;;;;8.93;95.31;101692.59;4967678;28;20054;-64
2022/09/21 01:53:36;;;;;;;2.72;1.52;;;;;;;8.92;94.73;101699.59;4966072;28;20058;-67
2022/09/21 01:56:24;;;;;;;2.65;1.48;;;;;;;8.93;94.82;101693.44;4966066;28;20089;-63
2022/09/21 01:59:00;;;;;;;3.58;1.75;;;;;;;8.92;94.28;101694.34;4947668;28;20157;-64
2022/09/21 02:01:27;;;;;;;;;;;;;;;8.93;93.76;101692.59;4954480;28;20392;-64
2022/09/21 02:03:58;;;;;;;3.42;1.67;;;;;;;8.91;93.60;101697.88;4965421;28;19926;-64
2022/09/21 02:06:27;;;;;;;3.85;1.73;;;;;;;8.93;93.35;101695.22;4948214;28;20043;-65
2022/09/21 02:08:55;;;;;;;6.18;2.10;;;;;;;8.90;93.94;101696.16;4936426;28;20062;-64
2022/09/21 02:11:22;;;;;;;3.30;1.83;;;;;;;8.86;94.26;101697.19;4951423;28;20077;-64
2022/09/21 02:13:51;;;;;;;3.05;1.70;;;;;;;8.79;94.64;101693.06;4949606;28;20415;-64
2022/09/21 02:16:30;;;;;;;3.15;1.67;;;;;;;8.77;93.94;101695.72;4966664;28;20495;-64
2022/09/21 02:19:26;;;;;;;5.57;1.70;;;;;;;8.72;94.79;101702.91;4966241;28;20131;-64
2022/09/21 02:21:53;;;;;;;3.10;1.63;;;;;;;8.74;94.14;101692.38;4965903;28;20062;-63
2022/09/21 02:24:50;;;;;;;3.05;1.52;;;;;;;8.77;93.80;101692.25;4965454;28;20058;-64
2022/09/21 02:27:41;;;;;;;8.77;2.20;;;;;;;8.79;93.14;101696.53;4938943;28;20057;-63
2022/09/21 02:30:18;;;;;;;8.40;3.15;;;;;;;8.80;92.92;101697.41;4964914;28;20047;-65
2022/09/21 02:33:00;;;;;;;6.28;2.60;;;;;;;8.75;93.97;101697.56;4947795;28;20046;-63
2022/09/21 02:35:42;;;;;;;4.88;1.75;;;;;;;8.72;94.02;101702.03;4963796;28;20480;-65
2022/09/21 02:38:16;;;;;;;5.20;2.17;;;;;;;8.74;93.99;101693.22;4969879;28;20070;-64
2022/09/21 02:40:52;;;;;;;5.38;1.92;;;;;;;8.72;94.51;101699.41;4964814;28;20121;-63
2022/09/21 02:43:26;;;;;;;6.85;2.28;;;;;;;8.66;95.87;101702.25;4953180;28;20444;-64
2022/09/21 02:45:58;;;;;;;4.90;2.03;;;;;;;8.63;96.47;101700.59;4969196;28;20050;-64
2022/09/21 02:48:32;;;;;;;3.78;1.95;;;;;;;8.66;95.43;101704.88;4965930;28;20543;-65
2022/09/21 02:51:08;;;;;;;4.82;1.85;;;;;;;8.66;94.56;101704.88;4951482;28;20085;-63
2022/09/21 02:53:37;;;;;;;5.40;2.13;;;;;;;8.70;94.04;101707.34;4954447;28;20059;-65
2022/09/21 02:56:06;;;;;;;4.68;2.50;;;;;;;8.68;94.40;101700.44;4952401;28;20171;-64
2022/09/21 02:58:42;;;;;;;3.88;2.00;;;;;;;8.58;95.38;101703.38;4970876;28;20046;-64
2022/09/21 03:01:11;;;;;;;3.97;2.00;;;;;;;8.58;95.00;101713.00;4967872;28;20061;-64
2022/09/21 03:03:38;;;;;;;8.70;2.67;;;;;;;8.58;94.90;101715.63;4952398;28;20070;-65
2022/09/21 03:06:05;;;;;;;4.88;2.20;;;;;;;8.52;95.82;101713.22;4971050;28;20054;-64
2022/09/21 03:08:32;;;;;;;7.55;3.30;;;;;;;8.48;96.11;101715.09;4968342;28;20055;-64
2022/09/21 03:10:59;;;;;;;6.80;3.15;;;;;;;8.49;95.97;101718.56;4948598;28;20051;-64
2022/09/21 03:13:26;;;;;;;5.78;3.00;;;;;;;8.52;96.02;101721.94;4965884;28;20061;-64
2022/09/21 03:16:05;;;;;;;8.07;3.40;;;;;;;8.55;95.62;101721.84;4969888;28;20055;-63
2022/09/21 03:18:33;;;;;;;5.97;2.63;;;;;;;8.58;94.93;101720.88;4965547;28;20055;-64
2022/09/21 03:21:02;;;;;;;8.07;2.97;;;;;;;8.58;94.77;101720.88;4948056;28;20059;-64
2022/09/21 03:23:29;;;;;;;6.03;3.03;;;;;;;8.59;94.04;101728.69;4967840;28;20151;-65
2022/09/21 03:25:56;;;;;;;6.15;3.42;;;;;;;8.61;95.88;101726.03;4972598;28;20551;-64
2022/09/21 03:28:23;;;;;;;6.68;3.25;;;;;;;8.58;96.97;101723.50;4983364;28;20411;-65
2022/09/21 03:30:51;;;;;;;3.88;2.40;;;;;;;8.58;97.09;101727.00;4952339;28;20475;-64
2022/09/21 03:33:19;;;;;;;6.45;2.95;;;;;;;8.58;97.78;101736.63;4969523;28;20055;-64
2022/09/21 03:35:50;;;;;;;5.18;2.72;;;;;;;8.53;99.36;101723.66;4966315;28;20108;-65
2022/09/21 03:38:17;;;;;;;15.93;3.95;;;;;;;8.54;100.00;101724.50;4967339;28;20058;-64
2022/09/21 03:40:48;;;;;;;5.03;2.78;;;;;;;8.47;100.00;101718.63;4946308;28;20059;-64
2022/09/21 03:43:16;;;;;;;5.60;2.60;;;;;;;8.44;100.00;101729.22;4969011;28;20073;-63
2022/09/21 03:45:43;;;;;;;5.10;2.38;;;;;;;8.51;98.80;101724.59;4961259;28;20055;-63
2022/09/21 03:48:11;;;;;;;7.45;2.78;;;;;;;8.53;98.97;101728.06;4968004;28;20051;-64
2022/09/21 03:50:41;;;;;;;4.28;2.33;;;;;;;8.53;98.64;101730.69;4966320;28;20576;-64
2022/09/21 03:53:09;;;;;;;3.42;2.20;;;;;;;8.53;97.83;101726.28;4973708;28;20255;-64
2022/09/21 03:55:37;;;;;;;4.22;2.40;;;;;;;8.56;97.92;101731.44;4963205;28;20050;-64
2022/09/21 03:58:04;;;;;;;5.30;2.17;;;;;;;8.53;98.20;101734.16;4966452;28;20050;-63
2022/09/21 04:00:31;;;;;;;6.05;2.70;;;;;;;8.56;98.75;101728.81;4965345;28;20054;-65
2022/09/21 04:02:59;;;;;;;3.70;2.15;;;;;;;8.57;98.31;101730.53;4972265;28;20047;-64
2022/09/21 04:05:26;;;;;;;4.47;2.85;;;;;;;8.56;98.21;101731.44;4954768;28;20058;-64
2022/09/21 04:07:55;;;;;;;4.50;1.98;;;;;;;8.48;100.00;101730.84;4948025;28;20051;-64
2022/09/21 04:10:25;;;;;;;4.03;2.10;;;;;;;8.44;100.00;101736.22;4965283;28;20525;-63
2022/09/21 04:12:56;;;;;;;4.85;1.85;;;;;;;8.41;100.00;101745.03;4949952;28;20078;-64
2022/09/21 04:15:23;;;;;;;6.53;2.35;;;;;;;8.42;100.00;101743.28;4963322;28;20158;-64
2022/09/21 04:17:51;;;;;;;3.50;2.33;;;;;;;8.40;100.00;101740.72;4965541;28;20047;-64
2022/09/21 04:20:19;;;;;;;4.07;1.90;;;;;;;8.43;100.00;101745.00;4951002;28;20650;-63
2022/09/21 04:22:46;;;;;;;4.22;2.10;;;;;;;8.42;99.98;101744.16;4963860;28;20070;-64
2022/09/21 04:25:14;;;;;;;5.78;2.17;;;;;;;8.46;99.39;101742.28;4966499;28;20051;-64
2022/09/21 04:27:42;;;;;;;5.47;2.03;;;;;;;8.45;99.81;101743.19;4932815;28;20495;-64
2022/09/21 04:30:11;;;;;;;3.75;1.80;;;;;;;8.45;99.27;101740.56;4969873;28;20158;-65
2022/09/21 04:32:39;;;;;;;3.03;1.90;;;;;;;8.44;98.82;101739.72;4969658;28;20169;-63
2022/09/21 04:35:06;;;;;;;3.90;1.80;;;;;;;8.45;98.03;101738.78;4971080;28;20129;-64
2022/09/21 04:37:33;;;;;;;4.00;1.92;;;;;;;8.43;98.07;101739.78;4966143;28;20504;-64
2022/09/21 04:40:01;;;;;;;5.13;2.00;;;;;;;8.43;97.47;101737.16;4968799;28;20065;-64
2022/09/21 04:42:28;;;;;;;2.50;1.77;;;;;;;8.45;96.78;101735.31;4952077;28;20059;-63
2022/09/21 04:44:55;;;;;;;4.22;1.85;;;;;;;8.43;97.24;101737.16;4970204;28;20499;-64
2022/09/21 04:47:22;;;;;;;3.85;2.13;;;;;;;8.38;97.79;101739.06;4967333;28;20053;-63
2022/09/21 04:49:51;;;;;;;4.00;2.50;;;;;;;8.34;97.80;101735.63;4967624;28;20051;-64
2022/09/21 04:52:18;;;;;;;2.70;1.90;;;;;;;8.31;98.06;101736.56;4967686;28;20097;-64
2022/09/21 04:54:46;;;;;;;5.65;2.90;;;;;;;8.34;97.10;101740.88;4950116;28;20050;-64
2022/09/21 04:57:14;;;;;;;3.92;2.38;;;;;;;8.31;97.75;101747.06;4966408;28;20063;-64
2022/09/21 04:59:41;;;;;;;4.90;2.50;;;;;;;8.31;97.92;101746.22;4954860;28;20051;-64
2022/09/21 05:02:08;;;;;;;6.05;2.55;;;;;;;8.30;98.80;101753.25;4969729;28;20043;-64
2022/09/21 05:04:36;;;;;;;6.82;2.72;;;;;;;8.27;99.91;101749.84;4967612;28;20054;-63
2022/09/21 05:07:03;;;;;;;7.13;2.58;;;;;;;8.25;99.31;101749.03;4967618;28;20073;-65
2022/09/21 05:12:16;;;;;;;5.65;2.17;;;;;;;8.34;98.79;101754.84;4950916;28;21003;-63
2022/09/21 05:14:43;;;;;;;4.53;2.70;;;;;;;8.38;98.18;101763.53;4967118;28;20434;-63
2022/09/21 05:17:11;;;;;;;7.82;2.60;;;;;;;8.35;100.00;101755.72;4950672;28;20058;-64
2022/09/21 05:19:39;;;;;;;7.75;3.00;;;;;;;8.31;99.57;101764.59;4962162;28;20050;-64
2022/09/21 05:22:06;;;;;;;5.28;2.60;;;;;;;8.30;99.54;101773.38;4964767;28;20062;-64
2022/09/21 05:24:33;;;;;;;9.15;2.85;;;;;;;8.28;100.00;101770.78;4967434;28;20320;-65
2022/09/21 05:27:00;;;;;;;3.65;2.45;;;;;;;8.26;100.00;101777.00;4964852;28;20054;-64
2022/09/21 05:29:28;;;;;;;5.30;2.40;;;;;;;8.31;100.00;101777.69;4946735;28;20047;-66
2022/09/21 05:32:26;;;;;;;5.07;2.85;;;;;;;8.30;99.58;101782.09;4950804;28;20061;-65
2022/09/21 05:35:03;;;;;;;3.97;2.17;;;;;;;8.34;99.03;101788.97;4954454;28;20534;-64
2022/09/21 05:37:51;;;;;;;8.90;2.30;;;;;;;8.35;99.82;101784.56;4967779;28;20051;-64
2022/09/21 05:40:19;;;;;;;3.88;2.40;;;;;;;8.36;99.22;101787.19;4950506;28;20507;-62
2022/09/21 05:42:46;;;;;;;5.70;2.13;;;;;;;8.42;98.65;101788.78;4952938;28;20066;-64
2022/09/21 05:45:17;;;;;;;8.15;2.85;;;;;;;8.43;98.48;101787.00;4963364;28;20062;-64
2022/09/21 05:48:15;;;;;;;5.72;2.30;;;;;;;8.45;99.02;101791.28;4969520;28;20069;-63
2022/09/21 05:50:45;;;;;;;6.15;3.25;;;;;;;8.51;97.65;101790.22;4977844;28;20054;-64
2022/09/21 05:53:37;;;;;;;11.63;3.90;;;;;;;8.56;98.39;101794.44;4964686;28;20050;-64
2022/09/21 05:56:29;;;;;;;10.55;3.45;;;;;;;8.59;99.35;101789.06;4983517;28;20323;-64
2022/09/21 05:59:17;;;;;;;13.68;3.30;;;;;;;8.58;98.85;101789.13;4988963;28;20391;-64
2022/09/21 06:02:15;;;;;;;5.18;2.90;;;;;;;8.59;100.00;101796.94;4944320;28;20142;-62
2022/09/21 06:04:42;;;;;;;7.70;3.28;;;;;;;8.61;99.88;101794.28;4972253;28;20058;-62
2022/09/21 06:07:09;;;;;;;5.28;2.63;;;;;;;8.65;99.50;101792.44;4982036;28;20057;-65
2022/09/21 06:09:36;;;;;;;11.13;3.60;;;;;;;8.69;98.56;101796.66;4974534;28;20054;-65
2022/09/21 06:12:10;;;;;;;6.75;3.20;;;;;;;8.76;97.88;101798.19;4980716;28;20047;-62
2022/09/21 06:14:37;;;;;;;14.07;3.40;;;;;;;8.82;96.88;101795.34;4979798;28;20051;-62
2022/09/21 06:17:04;;;;;;;14.00;4.72;;;;;;;8.87;96.40;101802.19;4972709;28;20055;-62
2022/09/21 06:19:31;;;;;;;9.68;3.65;;;;;;;8.91;96.24;101794.19;4964648;28;20065;-62
2022/09/21 06:21:59;;;;;;;9.65;3.53;;;;;;;8.93;96.79;101801.09;4970446;28;20043;-62
2022/09/21 06:24:26;;;;;;;8.32;3.45;;;;;;;8.95;97.29;101803.69;4963265;28;20063;-62
2022/09/21 06:26:53;;;;;;;9.98;3.10;;;;;;;8.99;98.24;101800.91;4958786;28;20474;-65
2022/09/21 06:29:22;;;;;;;7.40;3.35;;;;;;;9.03;99.45;101802.50;4970336;28;20050;-64
2022/09/21 06:31:50;;;;;;;12.25;3.83;;;;;;;9.05;99.29;101808.59;4966450;28;20047;-65
2022/09/21 06:34:17;;;;;;;9.73;3.25;;;;;;;9.13;97.91;101816.19;4965069;28;20063;-62
2022/09/21 06:36:44;;;;;;;6.75;3.67;;;;;;;9.23;98.54;101814.09;4974333;28;20055;-63
2022/09/21 06:39:12;;;;;;;6.85;3.55;;;;;;;9.30;98.55;101813.84;4962361;28;20042;-63
2022/09/21 06:41:39;;;;;;;4.78;2.65;;;;;;;9.35;98.46;101821.56;4967238;28;20047;-62
2022/09/21 06:44:06;;;;;;;15.93;5.47;;;;;;;9.41;98.53;101824.00;4964389;28;20062;-63
2022/09/21 06:46:33;;;;;;;7.90;3.67;;;;;;;9.45;99.07;101822.97;4977103;28;20062;-63
2022/09/21 06:49:00;;;;;;;9.70;4.40;;;;;;;9.49;100.00;101816.69;4981862;28;20057;-63
2022/09/21 06:51:27;;;;;;;12.82;4.75;;;;;;;9.50;100.00;101817.53;4975042;28;20411;-63
2022/09/21 06:53:55;;;;;;;16.05;4.18;;;;;;;9.55;100.00;101821.75;4984297;28;20050;-64
2022/09/21 06:56:23;;;;;;;13.80;4.80;;;;;;;9.61;100.00;101818.03;4971108;28;20059;-63
2022/09/21 06:58:51;;;;;;;9.00;4.15;;;;;;;9.58;100.00;101831.28;4969006;28;20042;-65
2022/09/21 07:01:18;;;;;;;14.02;4.95;;;;;;;9.66;100.00;101820.50;4974640;28;20046;-64
2022/09/21 07:03:49;;;;;;;13.30;5.40;;;;;;;9.72;100.00;101821.13;4970605;28;20046;-65
2022/09/21 07:06:17;;;;;;;13.07;5.18;;;;;;;9.73;100.00;101822.84;4956209;28;20057;-65
2022/09/21 07:08:46;;;;;;;14.98;6.03;;;;;;;9.76;100.00;101824.50;4973338;28;20058;-64
2022/09/21 07:11:33;;;;;;;9.50;5.03;;;;;;;9.81;100.00;101825.19;4972323;28;20074;-64
2022/09/21 07:14:00;;;;;;;8.35;4.40;;;;;;;9.79;100.00;101829.66;4968925;28;20043;-64
2022/09/21 07:16:27;;;;;;;10.43;5.03;;;;;;;9.77;100.00;101831.47;4977300;28;20054;-64
2022/09/21 07:18:54;;;;;;;10.52;5.57;;;;;;;9.70;100.00;101837.88;4960931;28;20074;-65
2022/09/21 07:21:23;;;;;;;13.23;5.40;;;;;;;9.69;100.00;101838.81;4968440;28;20057;-64
2022/09/21 07:23:50;;;;;;;8.75;4.75;;;;;;;9.66;100.00;101836.28;4971478;28;20054;-64
2022/09/21 07:26:17;;;;;;;7.07;4.30;;;;;;;9.70;100.00;101840.50;4972061;28;20050;-64
2022/09/21 07:28:44;;;;;;;9.43;5.10;;;;;;;9.74;100.00;101831.59;4952613;28;20054;-65
2022/09/21 07:31:13;;;;;;;13.45;5.47;;;;;;;9.78;100.00;101833.22;4967207;28;20605;-64
2022/09/21 07:33:41;;;;;;;9.23;5.13;;;;;;;9.83;100.00;101833.91;4964887;28;20058;-64
2022/09/21 07:36:09;;;;;;;6.72;4.72;;;;;;;9.89;100.00;101833.66;4969115;28;20050;-65
2022/09/21 07:38:38;;;;;;;9.95;5.10;;;;;;;9.95;100.00;101832.56;4966480;28;20055;-63
2022/09/21 07:41:06;;;;;;;9.00;4.97;;;;;;;9.99;100.00;101832.41;4964081;28;20066;-64
2022/09/21 07:43:33;;;;;;;11.20;4.88;;;;;;;10.06;100.00;101843.56;4964737;28;20055;-64
2022/09/21 07:46:01;;;;;;;13.40;5.65;;;;;;;10.10;100.00;101840.75;4966194;28;20054;-64
2022/09/21 07:48:29;;;;;;;8.93;4.70;;;;;;;10.13;100.00;101840.66;4961740;28;20067;-64
2022/09/21 07:51:03;;;;;;;8.93;5.22;;;;;;;10.20;100.00;101829.88;4965811;28;20069;-64
2022/09/21 07:53:34;;;;;;;14.90;6.18;;;;;;;10.25;100.00;101834.09;4964514;28;20051;-64
2022/09/21 07:56:07;;;;;;;10.00;5.32;;;;;;;10.36;100.00;101842.44;4962770;28;20526;-64
2022/09/21 08:01:22;;;;;;;12.98;4.97;;;;;;;10.44;100.00;101843.91;4974567;28;20069;-64
2022/09/21 08:03:50;;;;;;;9.88;4.40;;;;;;;10.42;100.00;101846.59;4970265;28;20051;-63
2022/09/21 08:06:18;;;;;;;6.85;4.22;;;;;;;10.45;100.00;101846.50;4970252;28;20050;-63
2022/09/21 08:08:49;;;;;;;12.35;4.88;;;;;;;10.51;100.00;101846.25;4968087;28;20059;-63
2022/09/21 08:11:22;;;;;;;11.52;4.57;;;;;;;10.55;100.00;101853.13;4969274;28;20088;-63
2022/09/21 08:13:54;;;;;;;9.35;4.75;;;;;;;10.58;100.00;101846.84;4968681;28;20046;-63
2022/09/21 08:16:22;;;;;;;11.68;5.10;;;;;;;10.68;100.00;101842.97;4967109;28;20055;-63
2022/09/21 08:18:50;;;;;;;14.38;4.90;;;;;;;10.75;100.00;101851.47;4968009;28;20045;-63
2022/09/21 08:21:19;;;;;;;8.02;4.07;;;;;;;10.84;100.00;101851.09;4969411;28;20046;-63
2022/09/21 08:23:48;;;;;;;9.82;4.57;;;;;;;10.90;100.00;101845.59;4968720;28;20053;-63
2022/09/21 08:26:17;;;;;;;9.70;4.35;;;;;;;10.94;100.00;101852.41;4976291;28;20054;-64
2022/09/21 08:28:50;;;;;;;7.75;4.22;;;;;;;11.02;100.00;101854.75;4970869;28;21931;-64
2022/09/21 08:31:19;;;;;;;7.93;4.07;;;;;;;11.08;100.00;101855.38;4970394;28;20051;-63
2022/09/21 08:33:47;;;;;;;8.27;3.92;;;;;;;11.13;100.00;101856.03;4968465;28;20051;-63
2022/09/21 08:36:14;;;;;;;11.10;3.85;;;;;;;11.18;100.00;101858.47;4960229;28;20046;-65
2022/09/21 08:38:41;;;;;;;7.22;3.78;;;;;;;11.14;100.00;101863.00;4963950;28;20412;-64
2022/09/21 08:41:23;;;;;;;9.85;3.85;;;;;;;11.18;100.00;101860.25;4967257;28;20443;-64
2022/09/21 08:43:51;;;;;;;8.35;4.28;;;;;;;11.26;100.00;101856.38;4967671;28;20070;-64
2022/09/21 08:46:24;;;;;;;12.38;4.05;;;;;;;11.37;100.00;101858.56;4951966;28;20102;-64
2022/09/21 08:48:55;;;;;;;6.47;3.97;;;;;;;11.43;100.00;101866.19;4967937;28;20051;-64
2022/09/21 08:51:25;;;;;;;9.13;4.03;;;;;;;11.49;100.00;101867.72;4976319;28;20051;-64
2022/09/21 08:53:56;;;;;;;13.48;4.18;;;;;;;11.57;100.00;101858.56;4961549;28;20050;-63
2022/09/21 08:56:25;;;;;;;7.13;3.85;;;;;;;11.68;100.00;101862.50;4959958;28;20511;-64
2022/09/21 08:59:14;;;;;;;7.75;3.70;;;;;;;11.76;100.00;101860.41;4949405;28;20047;-64
2022/09/21 09:01:57;;;;;;;7.78;4.20;;;;;;;11.84;100.00;101859.16;4955605;28;20050;-64
2022/09/21 09:04:43;;;;;;;10.48;4.15;;;;;;;12.06;99.96;101861.66;4970314;28;20438;-63
2022/09/21 09:07:42;;;;;;;7.90;3.75;;;;;;;12.09;99.84;101861.53;4958592;28;21117;-64
2022/09/21 09:10:24;;;;;;;9.73;3.63;;;;;;;12.12;99.81;101869.34;4969055;28;20046;-64
2022/09/21 09:13:04;;;;;;;7.97;3.40;;;;;;;12.23;99.73;101870.63;4975809;28;20058;-63
2022/09/21 09:15:54;;;;;;;9.98;3.33;;;;;;;12.32;99.60;101864.91;4967563;28;20051;-63
2022/09/21 09:18:32;;;;;;;7.95;3.55;;;;;;;12.37;97.65;101857.63;4946171;28;20073;-63
2022/09/21 09:21:04;;;;;;;6.25;3.05;;;;;;;12.44;98.21;101863.50;4968419;28;20052;-63
2022/09/21 09:23:33;;;;;;;8.02;3.35;;;;;;;12.49;97.33;101869.41;4952436;28;20066;-65
2022/09/21 09:26:05;;;;;;;9.45;4.25;;;;;;;12.54;97.12;101859.47;4950865;28;20053;-63
2022/09/21 09:28:35;;;;;;;7.10;3.30;;;;;;;12.63;96.57;101865.19;4975899;28;20623;-63
2022/09/21 09:31:18;;;;;;;8.57;4.00;;;;;;;12.69;95.56;101869.31;4951421;28;20068;-63
2022/09/21 09:33:51;;;;;;;9.75;3.78;;;;;;;12.82;96.34;101867.78;4961651;28;20059;-63
2022/09/21 09:36:19;;;;;;;6.70;3.03;;;;;;;12.91;96.39;101869.97;4967414;28;20060;-63
2022/09/21 09:39:13;;;;;;;8.65;3.40;;;;;;;12.96;94.75;101871.53;4961692;28;20282;-63
2022/09/21 09:42:16;;;;;;;7.90;3.50;;;;;;;13.00;94.57;101867.81;4963891;28;20046;-63
2022/09/21 09:44:53;;;;;;;7.90;2.72;;;;;;;13.16;93.75;101869.63;4960378;28;20094;-63
2022/09/21 09:47:42;;;;;;;5.53;3.10;;;;;;;13.22;93.43;101867.63;4970658;28;20058;-63
2022/09/21 09:50:20;;;;;;;4.10;2.40;;;;;;;13.27;92.64;101874.41;4962880;28;20059;-63
2022/09/21 09:52:53;;;;;;;5.07;2.13;;;;;;;13.27;91.43;101877.06;4954657;28;20055;-63
2022/09/21 09:55:29;;;;;;;6.90;2.53;;;;;;;13.36;92.74;101875.75;4956358;28;20086;-63
2022/09/21 09:57:57;;;;;;;6.10;2.50;;;;;;;13.45;92.49;101867.34;4960932;28;20054;-64
2022/09/21 10:00:25;;;;;;;6.05;2.05;;;;;;;13.59;92.55;101879.84;4971519;28;20062;-64
2022/09/21 10:02:54;;;;;;;5.25;2.88;;;;;;;13.64;90.56;101881.34;4957054;28;20138;-63
2022/09/21 10:05:31;;;;;;;4.25;2.30;;;;;;;13.71;89.58;101870.44;4946547;28;20066;-63
2022/09/21 10:07:59;;;;;;;4.80;2.35;;;;;;;13.73;90.11;101871.19;4965156;28;20059;-63
2022/09/21 10:10:35;;;;;;;5.90;2.28;;;;;;;13.81;90.44;101867.22;4973017;28;20051;-63
2022/09/21 10:13:11;;;;;;;5.45;2.10;;;;;;;13.85;87.96;101873.22;4974564;28;20046;-63
2022/09/21 10:15:43;;;;;;;2.92;1.77;;;;;;;13.83;87.72;101865.34;4967397;28;20063;-63
2022/09/21 10:18:18;;;;;;;8.30;1.95;;;;;;;13.96;88.06;101864.69;4950888;28;20330;-64
2022/09/21 10:20:55;;;;;;;3.78;2.22;;;;;;;14.10;89.29;101863.03;4974502;28;20050;-64
2022/09/21 10:23:23;;;;;;;3.53;1.92;;;;;;;14.17;88.85;101864.41;4951572;28;20062;-64
2022/09/21 10:26:00;;;;;;;6.65;1.75;;;;;;;14.32;88.71;101868.03;4966654;28;20097;-64
2022/09/21 10:28:27;;;;;;;4.60;1.67;;;;;;;14.52;87.49;101863.44;4965087;28;20146;-64
2022/09/21 10:31:28;;;;;;;3.22;1.52;;;;;;;14.73;82.98;101858.75;4965220;28;20047;-64
2022/09/21 10:34:14;;;;;;;3.03;1.25;;;;;;;14.79;82.97;101861.03;4901098;28;1283011;-64
2022/09/21 10:36:50;;;;;;;3.13;1.35;;;;;;;14.92;84.18;101856.75;4964082;28;20062;-64
2022/09/21 10:39:24;;;;;;;3.47;1.27;;;;;;;15.07;82.55;101850.53;4967608;28;20051;-64
2022/09/21 10:42:12;;;;;;;7.68;1.25;;;;;;;15.26;79.21;101852.97;4966359;28;20578;-63
2022/09/21 10:44:40;;;;;;;4.13;1.60;;;;;;;15.43;78.75;101851.97;4949804;28;20142;-63
2022/09/21 10:47:27;;;;;;;4.38;1.27;;;;;;;15.62;77.43;101849.91;4963995;28;20534;-64
2022/09/21 10:49:56;;;;;;;4.25;1.20;;;;;;;15.72;75.15;101841.44;4966497;28;20053;-64
2022/09/21 10:52:35;;;;;;;2.95;1.00;;;;;;;15.78;74.15;101841.06;4967784;28;20161;-64
2022/09/21 10:55:02;;;;;;;4.65;1.38;;;;;;;15.88;74.46;101839.53;4950675;28;20086;-64
2022/09/21 10:57:31;;;;;;;3.25;1.30;;;;;;;16.00;74.65;101844.09;4969475;28;20062;-64
2022/09/21 11:00:18;;;;;;;6.47;1.52;;;;;;;16.03;74.65;101833.28;4966659;28;20062;-64
2022/09/21 11:02:46;;;;;;;9.57;2.33;;;;;;;16.05;75.34;101836.69;4980064;28;20062;-64
2022/09/21 11:05:28;;;;;;;10.65;2.25;;;;;;;16.15;74.55;101839.59;4955387;28;20054;-64
2022/09/21 11:08:18;;;;;;;3.97;1.80;;;;;;;16.33;70.79;101826.97;4948468;28;20054;-64
2022/09/21 11:10:49;;;;;;;4.03;1.52;;;;;;;16.49;70.58;101819.72;4950956;28;20062;-64
2022/09/21 11:13:24;;;;;;;4.93;1.13;;;;;;;16.56;66.31;101828.97;4948308;28;20066;-64
2022/09/21 11:16:31;;;;;;;2.05;1.05;;;;;;;16.73;63.40;101829.72;4948662;28;20137;-64
2022/09/21 11:19:46;;;;;;;5.00;1.00;;;;;;;16.92;62.82;101825.75;4950292;28;20051;-64
2022/09/21 11:22:54;;;;;;;2.97;0.98;;;;;;;17.14;62.62;101817.19;4889560;29;20059;-65
2022/09/21 11:25:42;;;;;;;1.17;0.57;;;;;;;17.35;58.91;101827.34;4887957;29;20048;-63
2022/09/21 11:28:21;;;;;;;4.55;1.10;;;;;;;17.36;56.53;101821.03;4965710;28;20062;-64
2022/09/21 11:31:00;;;;;;;2.05;0.95;;;;;;;17.26;58.52;101827.97;4967051;28;20042;-64
2022/09/21 11:34:05;;;;;;;1.60;0.93;;;;;;;17.27;58.72;101813.69;4968035;28;20527;-64
2022/09/21 11:36:56;;;;;;;4.28;0.77;;;;;;;17.06;60.51;101832.78;4968376;28;20047;-64
2022/09/21 11:39:34;;;;;;;3.92;1.20;;;;;;;16.92;62.41;101832.88;4968239;28;20057;-63
2022/09/21 11:42:09;;;;;;;7.55;4.05;;;;;;;16.94;63.49;101828.31;4952308;28;20550;-63
2022/09/21 11:44:46;;;;;;;;;;;;;;;16.87;62.19;101827.00;4955102;28;20059;-63
2022/09/21 11:47:25;;;;;;;3.55;0.90;;;;;;;16.66;63.54;101826.56;4974397;28;19929;-64
2022/09/21 11:50:03;;;;;;;5.20;1.10;;;;;;;16.59;63.09;101836.78;4971738;28;20165;-64
2022/09/21 11:53:24;;;;;;;3.03;1.30;;;;;;;16.65;64.21;101835.50;4966351;28;20407;-64
2022/09/21 11:56:13;;;;;;;1.20;0.85;;;;;;;16.75;62.50;101823.38;4949923;28;20058;-64
2022/09/21 11:58:57;;;;;;;1.90;0.80;;;;;;;17.01;62.24;101818.97;4949801;28;20145;-64
2022/09/21 12:01:57;;;;;;;3.67;1.15;;;;;;;17.22;60.80;101816.66;4948708;28;20053;-64
2022/09/21 12:04:33;;;;;;;4.10;1.30;;;;;;;17.29;60.11;101817.09;4965681;28;20069;-64